Time;durP1;ratioP1;P1;durP2;ratioP2;P2;SDS_P1;SDS_P2;PMS_P1;PMS_P2;Temp;Humidity;BMP_temperature;BMP_pressure;BME280_temperature;BME280_humidity;BME280_pressure;Samples;Min_cycle;Max_cycle;Signal;HPM_P1;HPM_P2
2022/07/16 00:02:19;;;;;;;6.50;5.17;;;18.40;91.00;;;;;;5025755;28;20182;-69
2022/07/16 00:04:45;;;;;;;5.20;4.40;;;18.50;91.00;;;;;;5025234;28;20418;-70
2022/07/16 00:07:10;;;;;;;11.70;4.83;;;18.50;91.20;;;;;;5025203;28;20644;-69
2022/07/16 00:09:36;;;;;;;4.60;3.73;;;18.50;90.90;;;;;;5025020;28;20210;-70
2022/07/16 00:12:02;;;;;;;4.60;4.20;;;18.50;91.20;;;;;;5024784;28;20186;-69
2022/07/16 00:14:27;;;;;;;4.93;4.00;;;18.30;91.40;;;;;;5025013;28;20373;-70
2022/07/16 00:16:53;;;;;;;5.30;4.83;;;18.30;91.90;;;;;;5024985;28;20183;-71
2022/07/16 00:19:20;;;;;;;8.13;4.47;;;18.30;91.90;;;;;;5023511;28;20191;-69
2022/07/16 00:21:50;;;;;;;5.50;5.00;;;18.30;91.80;;;;;;5024691;28;20186;-69
2022/07/16 00:24:17;;;;;;;5.23;4.80;;;18.30;91.90;;;;;;5025249;28;20405;-70
2022/07/16 00:26:43;;;;;;;5.53;4.27;;;18.40;91.80;;;;;;5024177;28;20452;-69
2022/07/16 00:29:08;;;;;;;4.80;4.33;;;18.40;92.00;;;;;;5024477;28;20430;-70
2022/07/16 00:31:35;;;;;;;5.17;4.43;;;18.30;92.30;;;;;;5025034;28;20464;-70
2022/07/16 00:34:04;;;;;;;5.73;4.00;;;18.20;92.30;;;;;;5024670;28;20666;-70
2022/07/16 00:36:30;;;;;;;5.83;4.40;;;18.20;92.50;;;;;;5024579;28;20836;-70
2022/07/16 00:38:55;;;;;;;6.23;4.20;;;18.00;92.80;;;;;;5024624;28;20428;-70
2022/07/16 00:41:21;;;;;;;4.60;3.70;;;18.10;92.90;;;;;;5024189;28;20624;-68
2022/07/16 00:43:53;;;;;;;3.93;3.63;;;18.10;92.90;;;;;;5024967;28;20207;-68
2022/07/16 00:46:19;;;;;;;5.33;4.47;;;17.90;93.30;;;;;;5024483;28;20508;-69
2022/07/16 00:48:46;;;;;;;7.53;4.20;;;17.90;93.50;;;;;;5024535;28;20453;-70
2022/07/16 00:51:13;;;;;;;6.00;5.40;;;17.90;93.70;;;;;;5024338;28;20206;-67
2022/07/16 00:53:39;;;;;;;5.33;3.90;;;18.00;93.70;;;;;;5024656;28;20438;-69
2022/07/16 00:56:09;;;;;;;7.87;4.37;;;18.00;93.60;;;;;;5024093;28;20930;-69
2022/07/16 00:58:39;;;;;;;4.20;3.80;;;18.00;93.60;;;;;;5024668;28;21055;-69
2022/07/16 01:01:06;;;;;;;4.37;4.07;;;18.00;93.70;;;;;;5023097;28;20464;-69
2022/07/16 01:03:33;;;;;;;5.90;3.77;;;18.00;93.50;;;;;;5022927;28;20410;-68
2022/07/16 01:05:59;;;;;;;5.10;4.60;;;18.10;93.60;;;;;;5022723;28;20437;-69
2022/07/16 01:08:25;;;;;;;4.60;3.83;;;18.10;93.50;;;;;;5024300;28;20456;-68
2022/07/16 01:10:51;;;;;;;8.50;4.17;;;17.90;93.90;;;;;;5024526;28;20808;-68
2022/07/16 01:13:17;;;;;;;4.80;4.40;;;17.90;93.80;;;;;;5024345;28;20910;-69
2022/07/16 01:15:43;;;;;;;5.20;4.37;;;17.80;93.90;;;;;;5023897;28;21110;-70
2022/07/16 01:18:09;;;;;;;5.23;4.03;;;17.80;94.10;;;;;;5023588;28;20426;-70
2022/07/16 01:20:34;;;;;;;5.97;4.47;;;17.80;94.00;;;;;;5023711;28;20187;-70
2022/07/16 01:23:01;;;;;;;5.80;4.53;;;17.80;94.30;;;;;;5023837;28;21156;-69
2022/07/16 01:25:27;;;;;;;7.23;4.17;;;17.70;94.50;;;;;;5023907;28;20266;-69
2022/07/16 01:27:53;;;;;;;4.70;3.60;;;17.60;94.60;;;;;;5022380;28;20449;-69
2022/07/16 01:30:18;;;;;;;5.90;4.33;;;17.50;95.00;;;;;;5023975;28;20511;-69
2022/07/16 01:32:44;;;;;;;6.07;3.90;;;17.50;95.00;;;;;;5023405;28;20198;-69
2022/07/16 01:35:10;;;;;;;4.00;3.57;;;17.50;95.00;;;;;;5024383;28;20561;-69
2022/07/16 01:37:36;;;;;;;4.90;3.53;;;17.50;95.40;;;;;;5023817;28;20225;-69
2022/07/16 01:40:02;;;;;;;5.00;3.70;;;17.50;95.40;;;;;;5023830;28;20509;-70
2022/07/16 01:42:28;;;;;;;3.60;3.20;;;17.70;95.20;;;;;;5023455;28;20422;-70
2022/07/16 01:44:53;;;;;;;4.93;3.80;;;17.50;94.90;;;;;;5023623;28;20436;-71
2022/07/16 01:47:19;;;;;;;4.93;3.57;;;17.50;95.40;;;;;;5023270;28;20186;-71
2022/07/16 01:49:45;;;;;;;5.97;4.00;;;17.50;95.70;;;;;;5022810;28;20234;-69
2022/07/16 01:52:17;;;;;;;4.80;3.93;;;17.40;95.60;;;;;;5023385;28;21291;-70
2022/07/16 01:54:46;;;;;;;5.73;4.30;;;17.40;95.70;;;;;;5023641;28;20954;-70
2022/07/16 01:57:12;;;;;;;4.13;3.73;;;17.30;95.80;;;;;;5022660;28;20422;-70
2022/07/16 01:59:39;;;;;;;5.10;3.53;;;17.30;96.00;;;;;;5023345;28;20700;-69
2022/07/16 02:02:05;;;;;;;5.37;4.10;;;17.20;96.00;;;;;;5023695;28;20175;-69
2022/07/16 02:04:32;;;;;;;8.67;4.17;;;17.20;96.20;;;;;;5023356;28;20889;-69
2022/07/16 02:06:57;;;;;;;6.17;4.40;;;17.20;96.30;;;;;;5023187;28;20424;-69
2022/07/16 02:09:23;;;;;;;4.20;3.70;;;17.20;96.60;;;;;;5023650;28;20436;-71
2022/07/16 02:11:48;;;;;;;4.43;3.87;;;17.20;96.50;;;;;;5024150;28;20241;-69
2022/07/16 02:14:14;;;;;;;4.60;4.27;;;17.10;96.90;;;;;;5027571;28;20206;-69
2022/07/16 02:16:40;;;;;;;4.00;3.60;;;17.10;96.90;;;;;;5027353;28;20827;-68
2022/07/16 02:19:05;;;;;;;5.30;3.40;;;17.10;97.00;;;;;;5025825;28;20201;-69
2022/07/16 02:21:31;;;;;;;4.57;4.17;;;17.10;97.00;;;;;;5026994;28;20258;-70
2022/07/16 02:23:57;;;;;;;3.90;3.50;;;17.10;96.90;;;;;;5026880;28;20171;-70
2022/07/16 02:26:23;;;;;;;5.30;4.00;;;17.10;97.00;;;;;;5026855;28;20464;-69
2022/07/16 02:28:48;;;;;;;4.10;3.53;;;17.10;96.90;;;;;;5026703;28;20442;-69
2022/07/16 02:31:14;;;;;;;9.20;3.97;;;17.00;96.90;;;;;;5027300;28;20206;-68
2022/07/16 02:33:40;;;;;;;3.67;3.30;;;17.00;97.20;;;;;;5026892;28;20312;-71
2022/07/16 02:36:06;;;;;;;4.80;4.40;;;16.90;97.30;;;;;;5026956;28;20227;-69
2022/07/16 02:38:31;;;;;;;3.93;3.63;;;17.00;97.30;;;;;;5026708;28;20297;-69
2022/07/16 02:40:57;;;;;;;4.03;3.50;;;17.00;97.30;;;;;;5026967;28;20469;-68
2022/07/16 02:43:22;;;;;;;4.03;3.60;;;17.00;97.30;;;;;;5026581;28;20532;-69
2022/07/16 02:45:48;;;;;;;3.90;3.50;;;17.10;97.20;;;;;;5026885;28;20185;-69
2022/07/16 02:48:14;;;;;;;3.70;3.40;;;16.90;97.40;;;;;;5026311;28;20583;-68
2022/07/16 02:50:40;;;;;;;4.10;3.70;;;16.80;97.60;;;;;;5026503;28;20292;-68
2022/07/16 02:53:06;;;;;;;6.70;3.77;;;16.70;97.70;;;;;;5026278;28;20178;-69
2022/07/16 02:55:31;;;;;;;5.23;3.87;;;16.70;97.80;;;;;;5026729;28;20181;-69
2022/07/16 02:57:57;;;;;;;4.77;3.80;;;16.60;98.30;;;;;;5026477;28;21063;-69
2022/07/16 03:00:23;;;;;;;5.50;3.57;;;16.70;98.00;;;;;;5026667;28;20539;-69
2022/07/16 03:02:49;;;;;;;4.20;3.90;;;16.70;97.90;;;;;;5026585;28;20184;-69
2022/07/16 03:05:15;;;;;;;5.20;3.50;;;16.70;98.30;;;;;;5025611;28;20496;-70
2022/07/16 03:07:41;;;;;;;4.60;3.80;;;16.70;98.10;;;;;;5026157;28;20206;-69
2022/07/16 03:10:08;;;;;;;4.17;3.50;;;16.70;98.10;;;;;;5025842;28;20456;-69
2022/07/16 03:12:34;;;;;;;4.07;3.03;;;16.50;98.10;;;;;;5026344;28;20554;-68
2022/07/16 03:15:03;;;;;;;4.60;3.73;;;16.60;98.50;;;;;;5025962;28;20494;-69
2022/07/16 03:17:30;;;;;;;5.20;3.50;;;16.50;98.40;;;;;;5025761;28;20771;-69
2022/07/16 03:19:56;;;;;;;4.03;3.57;;;16.40;98.60;;;;;;5025695;28;20452;-70
2022/07/16 03:22:21;;;;;;;4.17;3.77;;;16.50;98.60;;;;;;5025368;28;20496;-69
2022/07/16 03:24:47;;;;;;;3.80;3.30;;;16.60;98.40;;;;;;5025895;28;20191;-68
2022/07/16 03:27:13;;;;;;;3.80;3.50;;;16.60;98.50;;;;;;5025867;28;20183;-69
2022/07/16 03:29:39;;;;;;;5.50;3.57;;;16.60;98.40;;;;;;5025587;28;20181;-69
2022/07/16 03:32:05;;;;;;;4.30;3.47;;;16.50;98.50;;;;;;5025936;28;20211;-69
2022/07/16 03:34:32;;;;;;;4.43;3.57;;;16.50;98.70;;;;;;5024002;28;20449;-69
2022/07/16 03:36:58;;;;;;;10.10;4.00;;;16.40;98.70;;;;;;5025546;28;20217;-69
2022/07/16 03:39:23;;;;;;;3.63;3.33;;;16.40;98.50;;;;;;5025696;28;20435;-69
2022/07/16 03:41:49;;;;;;;5.10;3.50;;;16.40;98.90;;;;;;5025433;28;20541;-71
2022/07/16 03:44:15;;;;;;;5.60;3.57;;;16.30;99.00;;;;;;5025472;28;20249;-69
2022/07/16 03:46:41;;;;;;;3.80;3.50;;;16.40;99.00;;;;;;5025661;28;20176;-68
2022/07/16 03:49:08;;;;;;;5.53;3.70;;;16.40;98.90;;;;;;5025398;28;20810;-69
2022/07/16 03:51:34;;;;;;;6.37;3.50;;;16.40;98.70;;;;;;5024950;28;20248;-68
2022/07/16 03:54:00;;;;;;;3.80;3.43;;;16.30;98.70;;;;;;5025108;28;20413;-69
2022/07/16 03:56:26;;;;;;;4.90;3.60;;;16.30;99.00;;;;;;5025165;28;20474;-68
2022/07/16 03:58:52;;;;;;;3.77;3.47;;;16.40;98.90;;;;;;5023697;28;20487;-69
2022/07/16 04:01:17;;;;;;;3.77;3.47;;;16.30;98.90;;;;;;5025347;28;20668;-68
2022/07/16 04:03:43;;;;;;;3.83;3.33;;;16.30;99.00;;;;;;5025021;28;20408;-69
2022/07/16 04:06:08;;;;;;;3.57;3.27;;;16.40;98.90;;;;;;5025467;28;20255;-69
2022/07/16 04:08:34;;;;;;;4.33;3.93;;;16.40;98.70;;;;;;5025340;28;20210;-69
2022/07/16 04:11:01;;;;;;;4.60;3.73;;;16.60;98.50;;;;;;5026790;28;20688;-69
2022/07/16 04:13:26;;;;;;;4.30;3.40;;;16.70;98.60;;;;;;5025231;28;20182;-68
2022/07/16 04:15:52;;;;;;;3.00;2.73;;;16.60;98.40;;;;;;5025021;28;20417;-68
2022/07/16 04:18:18;;;;;;;4.20;3.60;;;16.60;98.40;;;;;;5024659;28;20205;-69
2022/07/16 04:20:43;;;;;;;5.13;3.17;;;16.70;98.20;;;;;;5025150;28;20183;-67
2022/07/16 04:23:09;;;;;;;4.90;3.60;;;16.60;98.30;;;;;;5024769;28;20309;-68
2022/07/16 04:25:35;;;;;;;5.10;3.60;;;16.50;98.50;;;;;;5023430;28;20183;-68
2022/07/16 04:28:00;;;;;;;3.70;3.20;;;16.50;98.80;;;;;;5024890;28;20203;-68
2022/07/16 04:30:26;;;;;;;4.87;3.50;;;16.60;98.80;;;;;;5024588;28;20245;-68
2022/07/16 04:32:51;;;;;;;3.37;3.07;;;16.60;98.80;;;;;;5024723;28;20181;-68
2022/07/16 04:35:17;;;;;;;5.50;3.10;;;16.40;98.90;;;;;;5021801;28;20670;-67
2022/07/16 04:37:44;;;;;;;8.20;3.70;;;16.40;99.30;;;;;;5024671;28;20205;-67
2022/07/16 04:40:12;;;;;;;4.40;3.40;;;16.50;99.20;;;;;;5024596;28;20450;-68
2022/07/16 04:42:39;;;;;;;5.20;3.60;;;16.50;99.40;;;;;;5024709;28;20529;-68
2022/07/16 04:45:05;;;;;;;5.53;3.60;;;16.40;99.50;;;;;;5024884;28;20417;-68
2022/07/16 04:47:31;;;;;;;4.80;3.20;;;16.40;99.90;;;;;;5024507;28;20514;-69
2022/07/16 04:49:56;;;;;;;3.97;3.67;;;16.40;99.90;;;;;;5023932;28;20434;-68
2022/07/16 04:52:22;;;;;;;6.33;3.23;;;16.50;99.90;;;;;;5024605;28;20249;-68
2022/07/16 04:54:48;;;;;;;6.53;3.77;;;16.60;99.90;;;;;;5024169;28;20212;-67
2022/07/16 04:57:13;;;;;;;4.63;4.20;;;16.70;99.90;;;;;;5024316;28;20180;-69
2022/07/16 04:59:39;;;;;;;3.83;3.53;;;16.80;99.90;;;;;;5023018;28;20181;-68
2022/07/16 05:04:48;;;;;;;3.63;3.10;;;16.90;99.90;;;;;;5023975;28;20181;-67
2022/07/16 05:07:14;;;;;;;3.67;3.20;;;17.00;99.90;;;;;;5023919;28;20897;-67
2022/07/16 05:09:40;;;;;;;3.20;2.90;;;17.00;99.90;;;;;;5019053;28;20181;-69
2022/07/16 05:12:06;;;;;;;3.57;3.27;;;17.10;99.90;;;;;;5022455;28;20206;-69
2022/07/16 05:14:31;;;;;;;3.70;3.20;;;17.10;99.90;;;;;;5023652;28;20420;-69
2022/07/16 05:16:57;;;;;;;5.10;3.63;;;17.30;99.90;;;;;;5023994;28;20185;-67
2022/07/16 05:19:23;;;;;;;4.87;3.53;;;17.40;99.90;;;;;;5023370;28;20284;-68
2022/07/16 05:21:49;;;;;;;4.53;3.30;;;17.50;99.90;;;;;;5024008;28;20217;-67
2022/07/16 05:24:15;;;;;;;4.00;3.70;;;17.60;99.60;;;;;;5023329;28;20772;-68
2022/07/16 05:26:41;;;;;;;3.23;3.00;;;17.70;99.40;;;;;;5023790;28;20186;-68
2022/07/16 05:29:06;;;;;;;3.47;3.17;;;17.80;99.40;;;;;;5022165;28;20556;-69
2022/07/16 05:31:32;;;;;;;4.40;3.87;;;17.80;99.10;;;;;;5023859;28;20571;-68
2022/07/16 05:33:58;;;;;;;3.80;3.37;;;18.00;99.10;;;;;;5022094;28;20183;-68
2022/07/16 05:36:23;;;;;;;4.70;4.20;;;18.00;99.30;;;;;;5024456;28;20732;-68
2022/07/16 05:38:50;;;;;;;4.50;3.20;;;18.20;99.10;;;;;;5024243;28;20195;-68
2022/07/16 05:41:15;;;;;;;5.07;3.70;;;18.30;98.80;;;;;;5023990;28;20190;-68
2022/07/16 05:43:41;;;;;;;3.77;3.30;;;18.40;98.80;;;;;;5023634;28;20406;-68
2022/07/16 05:46:06;;;;;;;5.73;3.90;;;18.50;98.70;;;;;;5023656;28;20183;-68
2022/07/16 05:48:32;;;;;;;5.03;3.33;;;18.50;98.60;;;;;;5023605;28;20222;-70
2022/07/16 05:50:57;;;;;;;3.93;3.53;;;18.70;98.80;;;;;;5023765;28;20589;-68
2022/07/16 05:53:23;;;;;;;4.00;3.20;;;18.80;98.70;;;;;;5023560;28;20180;-68
2022/07/16 05:55:49;;;;;;;3.97;3.63;;;18.90;98.50;;;;;;5024451;28;20179;-68
2022/07/16 05:58:14;;;;;;;4.67;3.73;;;19.10;98.10;;;;;;5024021;28;20207;-68
2022/07/16 06:00:40;;;;;;;4.10;3.70;;;19.20;97.80;;;;;;5024206;28;20194;-69
2022/07/16 06:03:07;;;;;;;3.83;3.43;;;19.30;97.50;;;;;;5023832;28;20262;-67
2022/07/16 06:05:33;;;;;;;3.63;3.33;;;19.40;97.00;;;;;;5023873;28;20190;-68
2022/07/16 06:07:58;;;;;;;3.40;3.00;;;19.60;96.50;;;;;;5023578;28;20438;-68
2022/07/16 06:10:24;;;;;;;4.23;3.40;;;19.70;95.70;;;;;;5023872;28;20479;-69
2022/07/16 06:12:50;;;;;;;3.60;3.30;;;19.80;95.10;;;;;;5023674;28;20175;-69
2022/07/16 06:15:15;;;;;;;4.80;3.83;;;19.90;94.60;;;;;;5023471;28;20175;-67
2022/07/16 06:17:41;;;;;;;3.53;2.70;;;20.10;93.70;;;;;;5023997;28;20664;-68
2022/07/16 06:20:09;;;;;;;3.77;3.00;;;20.20;93.40;;;;;;5023067;28;21111;-68
2022/07/16 06:22:35;;;;;;;6.67;3.87;;;20.20;93.10;;;;;;5023156;28;20191;-67
2022/07/16 06:25:01;;;;;;;4.63;3.13;;;20.30;92.80;;;;;;5023356;28;20452;-68
2022/07/16 06:27:27;;;;;;;8.07;3.63;;;20.40;92.30;;;;;;5023366;28;20441;-67
2022/07/16 06:29:52;;;;;;;3.50;3.20;;;20.30;91.60;;;;;;5024823;28;20198;-68
2022/07/16 06:32:18;;;;;;;5.80;4.07;;;20.30;91.10;;;;;;5024473;28;20414;-67
2022/07/16 06:34:43;;;;;;;4.33;3.93;;;20.30;90.90;;;;;;5023110;28;20637;-68
2022/07/16 06:37:09;;;;;;;3.83;3.40;;;20.20;90.90;;;;;;5023095;28;20203;-67
2022/07/16 06:39:35;;;;;;;4.63;4.23;;;20.30;91.30;;;;;;5023077;28;20229;-68
2022/07/16 06:42:01;;;;;;;7.40;4.90;;;20.40;91.60;;;;;;5022882;28;20175;-70
2022/07/16 06:44:26;;;;;;;4.17;3.87;;;20.20;92.10;;;;;;5023059;28;20236;-69
2022/07/16 06:46:53;;;;;;;4.30;3.90;;;20.20;92.00;;;;;;5023088;28;20188;-69
2022/07/16 06:49:19;;;;;;;4.70;4.20;;;20.10;91.50;;;;;;5022233;28;20203;-70
2022/07/16 06:51:44;;;;;;;5.67;4.40;;;20.00;91.90;;;;;;5022777;28;20556;-69
2022/07/16 06:54:10;;;;;;;6.53;4.43;;;19.90;92.00;;;;;;5022651;28;20437;-70
2022/07/16 06:56:36;;;;;;;6.53;4.27;;;20.10;91.90;;;;;;5021960;28;20222;-69
2022/07/16 06:59:02;;;;;;;5.53;4.67;;;20.20;92.00;;;;;;5025302;28;20226;-70
2022/07/16 07:01:28;;;;;;;4.20;3.80;;;20.30;92.20;;;;;;5025542;28;20729;-70
2022/07/16 07:03:53;;;;;;;5.13;4.10;;;20.60;91.00;;;;;;5025877;28;20489;-70
2022/07/16 07:06:19;;;;;;;6.27;3.90;;;20.20;90.70;;;;;;5026237;28;20267;-69
2022/07/16 07:08:44;;;;;;;3.67;3.37;;;20.30;90.50;;;;;;5024855;28;20199;-68
2022/07/16 07:11:11;;;;;;;4.23;3.70;;;20.10;90.20;;;;;;5026580;28;20206;-68
2022/07/16 07:13:38;;;;;;;4.83;3.93;;;20.10;90.30;;;;;;5026070;28;20481;-68
2022/07/16 07:16:04;;;;;;;7.33;4.50;;;20.20;90.50;;;;;;5025905;28;20437;-69
2022/07/16 07:18:30;;;;;;;5.00;4.50;;;20.20;90.40;;;;;;5025962;28;20426;-69
2022/07/16 07:20:56;;;;;;;7.80;3.67;;;20.50;90.80;;;;;;5008162;28;20433;-68
2022/07/16 07:23:22;;;;;;;6.40;4.33;;;20.40;89.80;;;;;;5026131;28;20199;-68
2022/07/16 07:25:47;;;;;;;5.30;3.80;;;20.40;90.00;;;;;;5025369;28;20452;-69
2022/07/16 07:28:13;;;;;;;7.00;3.70;;;20.50;90.70;;;;;;5025764;28;20199;-69
2022/07/16 07:30:39;;;;;;;4.43;3.40;;;20.70;90.10;;;;;;5026046;28;20757;-68
2022/07/16 07:33:05;;;;;;;7.33;4.10;;;21.00;89.30;;;;;;5025374;28;20179;-69
2022/07/16 07:35:31;;;;;;;3.90;3.60;;;21.20;89.80;;;;;;5025809;28;20460;-68
2022/07/16 07:37:57;;;;;;;4.67;3.63;;;21.30;88.40;;;;;;5025360;28;20421;-69
2022/07/16 07:40:27;;;;;;;4.00;3.10;;;21.40;86.70;;;;;;5026183;28;20595;-69
2022/07/16 07:42:54;;;;;;;6.17;3.87;;;20.90;87.00;;;;;;5026374;28;20179;-67
2022/07/16 07:45:20;;;;;;;4.43;4.03;;;21.00;87.80;;;;;;5025843;28;20467;-69
2022/07/16 07:47:46;;;;;;;5.23;3.90;;;20.90;87.80;;;;;;5025309;28;20517;-68
2022/07/16 07:50:11;;;;;;;4.07;3.77;;;21.10;88.10;;;;;;5025714;28;20564;-68
2022/07/16 07:52:37;;;;;;;4.40;3.90;;;21.40;88.90;;;;;;5025508;28;20183;-69
2022/07/16 07:55:04;;;;;;;5.87;4.00;;;21.60;87.30;;;;;;5025942;28;20252;-68
2022/07/16 07:57:29;;;;;;;5.13;3.27;;;21.50;87.50;;;;;;5025019;28;20175;-68
2022/07/16 07:59:55;;;;;;;4.43;3.00;;;21.30;84.50;;;;;;5025709;28;20929;-68
2022/07/16 08:02:20;;;;;;;4.67;3.10;;;21.40;82.90;;;;;;5024618;28;20198;-68
2022/07/16 08:04:46;;;;;;;5.53;3.83;;;21.50;82.30;;;;;;5024241;28;20201;-68
2022/07/16 08:07:12;;;;;;;3.03;2.80;;;21.60;83.90;;;;;;5024914;28;20183;-68
2022/07/16 08:09:37;;;;;;;3.67;3.03;;;21.60;81.90;;;;;;5025225;28;20195;-70
2022/07/16 08:12:03;;;;;;;5.53;3.00;;;21.80;81.30;;;;;;5024972;28;20195;-68
2022/07/16 08:14:29;;;;;;;7.37;3.70;;;21.90;80.40;;;;;;5024943;28;20391;-68
2022/07/16 08:16:56;;;;;;;3.63;3.10;;;21.90;81.50;;;;;;5024123;28;20616;-68
2022/07/16 08:19:22;;;;;;;3.97;2.47;;;21.90;81.20;;;;;;5024117;28;20430;-67
2022/07/16 08:21:48;;;;;;;2.80;2.33;;;21.80;76.90;;;;;;5025495;28;20449;-69
2022/07/16 08:26:58;;;;;;;2.73;2.33;;;21.80;77.90;;;;;;5025340;28;20455;-68
2022/07/16 08:29:24;;;;;;;3.20;2.40;;;21.70;78.30;;;;;;5024720;28;20442;-69
2022/07/16 08:31:50;;;;;;;3.03;2.30;;;21.80;78.10;;;;;;5024650;28;20207;-69
2022/07/16 08:34:15;;;;;;;4.57;2.83;;;22.00;76.50;;;;;;5024554;28;20430;-69
2022/07/16 08:36:41;;;;;;;6.27;2.50;;;22.20;77.50;;;;;;5023008;28;20183;-69
2022/07/16 08:39:07;;;;;;;3.30;2.40;;;22.00;76.20;;;;;;5024710;28;20723;-68
2022/07/16 08:41:34;;;;;;;2.60;2.20;;;22.10;75.40;;;;;;5024348;28;20606;-68
2022/07/16 08:44:01;;;;;;;3.03;2.53;;;22.20;74.40;;;;;;5024680;28;20179;-69
2022/07/16 08:46:27;;;;;;;4.53;2.80;;;22.40;74.40;;;;;;5024424;28;20416;-68
2022/07/16 08:48:53;;;;;;;3.10;2.80;;;22.30;74.10;;;;;;5023974;28;20437;-69
2022/07/16 08:51:30;;;;;;;3.33;2.23;;;22.30;74.50;;;;;;5024062;28;20268;-69
2022/07/16 08:53:58;;;;;;;6.80;2.70;;;22.40;73.60;;;;;;5024194;28;20410;-69
2022/07/16 08:56:26;;;;;;;4.63;2.10;;;22.20;72.40;;;;;;5024973;28;20841;-69
2022/07/16 08:58:52;;;;;;;2.80;2.10;;;22.10;73.40;;;;;;5023926;28;20947;-70
2022/07/16 09:01:18;;;;;;;2.63;2.30;;;22.10;72.20;;;;;;5024612;28;20421;-69
2022/07/16 09:03:43;;;;;;;6.40;2.83;;;22.10;73.10;;;;;;5023512;28;20424;-70
2022/07/16 09:06:09;;;;;;;2.80;2.00;;;22.40;72.60;;;;;;5024342;28;20229;-69
2022/07/16 09:08:35;;;;;;;2.83;2.20;;;22.60;71.40;;;;;;5023297;28;20242;-70
2022/07/16 09:11:20;;;;;;;2.30;2.10;;;22.40;71.10;;;;;;5024327;28;21036;-70
2022/07/16 09:14:15;;;;;;;4.23;2.10;;;22.50;71.80;;;;;;5023982;28;20167;-70
2022/07/16 09:16:52;;;;;;;2.67;1.80;;;22.70;69.60;;;;;;5022851;28;20448;-70
2022/07/16 09:19:19;;;;;;;2.67;1.93;;;22.60;71.00;;;;;;5023521;28;20884;-71
2022/07/16 09:22:09;;;;;;;5.60;2.20;;;22.60;69.70;;;;;;5023562;28;20416;-70
2022/07/16 09:24:48;;;;;;;3.17;1.50;;;22.90;71.70;;;;;;5023905;28;20524;-70
2022/07/16 09:27:20;;;;;;;5.23;2.00;;;23.00;68.30;;;;;;5023784;28;21445;-70
2022/07/16 09:30:02;;;;;;;2.93;1.90;;;23.00;69.60;;;;;;5024200;28;20428;-70
2022/07/16 09:32:39;;;;;;;2.40;1.67;;;22.90;67.30;;;;;;5023795;28;21447;-70
2022/07/16 09:35:11;;;;;;;4.50;1.73;;;22.90;67.20;;;;;;5023295;28;20394;-70
2022/07/16 09:37:57;;;;;;;2.83;1.60;;;23.10;67.00;;;;;;5023489;28;20430;-70
2022/07/16 09:40:38;;;;;;;2.60;2.03;;;23.50;69.60;;;;;;5023851;28;20421;-70
2022/07/16 09:43:17;;;;;;;4.07;2.40;;;23.70;66.30;;;;;;5023451;28;20956;-70
2022/07/16 09:45:57;;;;;;;1.83;1.63;;;23.50;66.10;;;;;;5023902;28;20472;-69
2022/07/16 09:48:24;;;;;;;1.83;1.67;;;23.40;66.30;;;;;;5023486;28;20429;-70
2022/07/16 09:50:51;;;;;;;3.53;2.03;;;23.50;66.80;;;;;;5023084;28;20888;-69
2022/07/16 09:53:21;;;;;;;4.33;2.50;;;23.50;67.40;;;;;;5023274;28;20918;-70
2022/07/16 09:56:05;;;;;;;5.00;1.93;;;23.70;65.90;;;;;;5023172;28;20851;-70
2022/07/16 09:58:32;;;;;;;1.90;1.70;;;23.50;66.50;;;;;;5023168;28;20421;-69
2022/07/16 10:00:58;;;;;;;5.97;2.03;;;23.70;68.70;;;;;;5023180;28;20422;-70
2022/07/16 10:03:25;;;;;;;3.07;1.87;;;24.10;69.70;;;;;;5023587;28;21395;-70
2022/07/16 10:05:51;;;;;;;3.40;2.27;;;24.00;65.20;;;;;;5022919;28;20441;-70
2022/07/16 10:08:17;;;;;;;2.87;1.70;;;23.70;66.20;;;;;;5023009;28;20461;-70
2022/07/16 10:10:43;;;;;;;2.67;1.97;;;23.90;66.30;;;;;;5023241;28;20469;-69
2022/07/16 10:13:10;;;;;;;1.93;1.70;;;23.70;66.10;;;;;;5022674;28;20528;-70
2022/07/16 10:15:37;;;;;;;2.80;2.10;;;23.60;66.30;;;;;;5022596;28;20410;-70
2022/07/16 10:18:03;;;;;;;3.17;2.20;;;23.70;66.30;;;;;;5023066;28;20718;-70
2022/07/16 10:20:35;;;;;;;2.93;2.20;;;23.70;66.40;;;;;;5021617;28;20902;-70
2022/07/16 10:23:05;;;;;;;5.87;2.50;;;24.00;67.60;;;;;;5023130;28;20405;-70
2022/07/16 10:25:35;;;;;;;2.90;1.87;;;24.30;66.00;;;;;;5023271;28;20576;-70
2022/07/16 10:28:01;;;;;;;2.83;1.80;;;24.20;65.60;;;;;;5022792;28;20433;-71
2022/07/16 10:30:32;;;;;;;4.00;2.30;;;24.30;65.70;;;;;;5023004;28;20837;-71
2022/07/16 10:33:00;;;;;;;4.50;2.10;;;24.10;64.60;;;;;;5024385;28;20187;-69
2022/07/16 10:35:40;;;;;;;2.23;2.03;;;24.00;64.10;;;;;;5026439;28;20544;-70
2022/07/16 10:38:09;;;;;;;3.60;2.03;;;23.90;63.90;;;;;;5026799;28;20491;-68
2022/07/16 10:40:37;;;;;;;4.47;1.70;;;24.30;64.50;;;;;;5026906;28;20527;-70
2022/07/16 10:43:12;;;;;;;2.70;1.97;;;24.40;62.90;;;;;;5025366;28;20776;-69
2022/07/16 10:46:02;;;;;;;2.93;1.90;;;24.30;63.00;;;;;;5026762;28;20988;-69
2022/07/16 10:48:51;;;;;;;2.60;1.90;;;24.30;62.60;;;;;;5026804;28;20465;-71
2022/07/16 10:51:22;;;;;;;2.53;2.00;;;24.40;63.10;;;;;;5025894;28;20497;-69
2022/07/16 10:54:02;;;;;;;3.10;2.17;;;24.70;63.40;;;;;;5026558;28;20452;-69
2022/07/16 10:56:48;;;;;;;2.60;1.87;;;24.80;61.20;;;;;;5025843;28;20413;-70
2022/07/16 10:59:16;;;;;;;3.00;1.50;;;24.60;62.10;;;;;;5025981;28;20436;-70
2022/07/16 11:01:44;;;;;;;3.77;1.50;;;24.80;61.70;;;;;;5026510;28;20436;-70
2022/07/16 11:04:10;;;;;;;9.30;2.00;;;25.10;62.60;;;;;;5026690;28;20432;-69
2022/07/16 11:06:38;;;;;;;2.43;1.67;;;25.20;60.10;;;;;;5025034;28;20414;-69
2022/07/16 11:09:06;;;;;;;2.50;2.10;;;25.00;60.30;;;;;;5026104;28;20426;-70
2022/07/16 11:11:39;;;;;;;3.73;2.33;;;25.20;61.00;;;;;;5025627;28;20564;-69
2022/07/16 11:14:05;;;;;;;3.80;1.57;;;25.00;59.70;;;;;;5025805;28;20445;-70
2022/07/16 11:16:32;;;;;;;2.43;1.70;;;24.80;60.10;;;;;;5026212;28;20414;-70
2022/07/16 11:19:01;;;;;;;1.70;1.60;;;25.10;59.10;;;;;;5025697;28;20437;-71
2022/07/16 11:21:27;;;;;;;2.17;1.53;;;25.40;59.10;;;;;;5025742;28;20418;-69
2022/07/16 11:23:59;;;;;;;3.20;1.73;;;25.70;58.90;;;;;;5026166;28;20569;-69
2022/07/16 11:26:25;;;;;;;2.33;1.77;;;25.10;58.60;;;;;;5025766;28;20509;-71
2022/07/16 11:28:56;;;;;;;2.30;1.97;;;25.40;62.10;;;;;;5025992;28;20915;-71
2022/07/16 11:31:32;;;;;;;1.77;1.40;;;25.90;57.70;;;;;;5026139;28;20456;-70
2022/07/16 11:34:00;;;;;;;1.63;1.43;;;26.40;57.70;;;;;;5025649;28;20413;-69
2022/07/16 11:36:32;;;;;;;3.90;1.67;;;27.60;54.90;;;;;;5025731;28;20414;-71
2022/07/16 11:39:02;;;;;;;3.60;1.60;;;29.10;54.40;;;;;;5025628;28;20457;-71
2022/07/16 11:41:28;;;;;;;2.17;1.27;;;31.00;48.30;;;;;;5025962;28;20430;-70
2022/07/16 11:43:55;;;;;;;2.27;1.67;;;31.20;46.10;;;;;;5025458;28;20422;-71
2022/07/16 11:46:28;;;;;;;4.63;1.50;;;30.60;47.80;;;;;;5025702;28;20427;-70
2022/07/16 11:48:54;;;;;;;4.50;1.60;;;31.00;45.20;;;;;;5025539;28;20438;-71
2022/07/16 11:51:20;;;;;;;2.20;1.57;;;30.10;45.90;;;;;;5025431;28;20469;-69
2022/07/16 11:53:53;;;;;;;4.07;2.10;;;30.00;46.40;;;;;;5025676;28;20432;-67
2022/07/16 11:56:38;;;;;;;4.33;1.60;;;30.40;45.40;;;;;;5025510;28;20413;-70
2022/07/16 11:59:21;;;;;;;4.13;1.40;;;31.30;44.00;;;;;;5025353;28;20430;-70
2022/07/16 12:01:56;;;;;;;2.00;1.40;;;32.30;42.70;;;;;;5024086;28;20446;-70
2022/07/16 12:04:31;;;;;;;2.97;1.80;;;33.30;41.80;;;;;;5025385;28;20478;-68
2022/07/16 12:06:57;;;;;;;3.57;1.70;;;33.60;40.20;;;;;;5025253;28;20406;-70
2022/07/16 12:09:34;;;;;;;1.67;1.40;;;32.80;42.10;;;;;;5025179;28;20579;-70
2022/07/16 12:12:04;;;;;;;1.90;1.20;;;31.80;41.60;;;;;;5024811;28;20581;-71
2022/07/16 12:14:53;;;;;;;2.53;1.20;;;31.60;43.00;;;;;;5024859;28;20521;-70
2022/07/16 12:17:31;;;;;;;2.33;1.43;;;31.20;43.60;;;;;;5024818;28;20468;-70
2022/07/16 12:20:07;;;;;;;2.97;1.77;;;32.00;42.30;;;;;;5024540;28;20483;-70
2022/07/16 12:23:00;;;;;;;2.00;1.60;;;31.80;42.90;;;;;;5025217;28;20417;-70
2022/07/16 12:25:26;;;;;;;2.27;1.60;;;31.60;42.90;;;;;;5024617;28;20417;-72
2022/07/16 12:28:17;;;;;;;1.40;1.30;;;31.80;42.80;;;;;;5024641;28;20434;-72
2022/07/16 12:31:11;;;;;;;1.93;1.60;;;32.90;41.30;;;;;;5024547;28;20464;-71
2022/07/16 12:33:37;;;;;;;2.70;1.70;;;34.10;40.80;;;;;;5023308;28;20917;-71
2022/07/16 12:36:07;;;;;;;4.03;1.50;;;30.80;43.40;;;;;;5024870;28;20410;-71
2022/07/16 12:38:37;;;;;;;2.53;1.27;;;30.80;44.30;;;;;;5024889;28;20331;-71
2022/07/16 12:41:03;;;;;;;2.80;1.37;;;31.00;43.60;;;;;;5024775;28;20425;-71
2022/07/16 12:43:29;;;;;;;2.20;1.30;;;31.80;42.90;;;;;;5024769;28;20422;-71
2022/07/16 12:45:54;;;;;;;2.37;1.57;;;32.20;41.80;;;;;;5024409;28;20832;-71
2022/07/16 12:48:20;;;;;;;5.10;1.60;;;31.70;43.00;;;;;;5024604;28;20203;-71
2022/07/16 12:50:46;;;;;;;6.13;1.17;;;31.30;43.30;;;;;;5023961;28;20690;-71
2022/07/16 12:53:11;;;;;;;2.20;1.13;;;31.00;43.70;;;;;;5024545;28;20249;-71
2022/07/16 13:01:06;;;;;;;1.87;1.10;;;32.20;42.80;;;;;;5024419;28;20440;-71
2022/07/16 13:03:32;;;;;;;1.63;1.30;;;32.30;42.80;;;;;;5024194;28;20426;-70